Terminal Aerodrome Forecast
Issued by NWS

Home | Current Version | Previous Version | Text Only | Print | Product List | Glossary On
Versions: 1 2 3 4 5 6 7 8 9 10 11 12 13
000
FTUS45 KRIW 030539
TAFBPI
TAF
KBPI 030539Z 0306/0406 VRB05KT P6SM FEW110 SCT150
     FM031700 21010KT P6SM SCT090
     FM031900 22014G22KT P6SM SCT090 BKN200
     FM040200 24008KT P6SM FEW110=

USA.gov is the U.S. government's official web portal to all federal, state and local government web resources and services.